createdAt,value
2018-06-09T00:01:14.838Z,54.20
2018-06-09T00:03:43.144Z,63.07
2018-06-09T00:06:11.410Z,49.63
2018-06-09T00:08:39.690Z,71.03
2018-06-09T00:11:07.953Z,85.67
2018-06-09T00:13:36.283Z,74.77
2018-06-09T00:16:04.757Z,61.70
2018-06-09T00:18:33.030Z,62.60
2018-06-09T00:21:01.315Z,49.07
2018-06-09T00:23:29.602Z,59.53
2018-06-09T00:25:57.865Z,54.30
2018-06-09T00:28:26.149Z,54.17
2018-06-09T00:30:54.470Z,44.63
2018-06-09T00:33:22.746Z,47.60
2018-06-09T00:35:51.062Z,45.43
2018-06-09T00:38:19.318Z,61.43
2018-06-09T00:40:47.602Z,44.13
2018-06-09T00:43:15.958Z,42.53
2018-06-09T00:45:44.225Z,42.63
2018-06-09T00:48:12.510Z,44.60
2018-06-09T00:50:40.784Z,36.87
2018-06-09T00:53:09.069Z,44.60
2018-06-09T00:55:37.358Z,42.30
2018-06-09T00:58:05.645Z,34.63
2018-06-09T01:00:33.922Z,42.77
2018-06-09T01:03:01.939Z,39.43
2018-06-09T01:05:30.214Z,36.17
2018-06-09T01:07:58.542Z,47.67
2018-06-09T01:10:26.832Z,38.03
2018-06-09T01:12:54.841Z,33.03
2018-06-09T01:15:23.150Z,37.20
2018-06-09T01:17:51.976Z,33.37
2018-06-09T01:20:20.256Z,43.23
2018-06-09T01:22:48.715Z,59.53
2018-06-09T01:25:16.993Z,40.30
2018-06-09T01:27:45.281Z,48.20
2018-06-09T01:30:13.891Z,36.73
2018-06-09T01:32:42.154Z,41.87
2018-06-09T01:35:10.496Z,39.97
2018-06-09T01:37:38.774Z,41.57
2018-06-09T01:40:07.046Z,27.60
2018-06-09T01:42:35.322Z,32.40
2018-06-09T01:45:03.626Z,31.03
2018-06-09T01:47:31.943Z,29.83
2018-06-09T01:50:00.427Z,35.00
2018-06-09T01:52:28.702Z,32.87
2018-06-09T01:54:56.978Z,39.87
2018-06-09T01:57:25.262Z,48.00
2018-06-09T01:59:53.539Z,41.57
2018-06-09T02:02:22.277Z,35.90
2018-06-09T02:04:51.414Z,36.03
2018-06-09T02:07:19.703Z,31.23
2018-06-09T02:09:47.982Z,29.10
2018-06-09T02:12:16.274Z,31.50
2018-06-09T02:14:44.619Z,32.50
2018-06-09T02:17:12.906Z,36.50
2018-06-09T02:19:41.199Z,27.33
2018-06-09T02:22:09.510Z,37.60
2018-06-09T02:24:37.825Z,26.50
2018-06-09T02:27:06.099Z,34.10
2018-06-09T02:29:34.372Z,44.80
2018-06-09T02:32:02.666Z,38.63
2018-06-09T02:34:30.966Z,31.20
2018-06-09T02:36:59.238Z,35.30
2018-06-09T02:39:27.698Z,33.40
2018-06-09T02:41:55.986Z,31.80
2018-06-09T02:44:24.259Z,38.83
2018-06-09T02:46:52.543Z,35.20
2018-06-09T02:49:20.854Z,40.23
2018-06-09T02:51:49.192Z,35.13
2018-06-09T02:54:17.498Z,38.47
2018-06-09T02:56:45.803Z,34.90
2018-06-09T02:59:14.074Z,33.00
2018-06-09T03:01:42.362Z,29.27
2018-06-09T03:04:10.630Z,36.53
2018-06-09T03:06:38.905Z,40.87
2018-06-09T03:09:07.779Z,32.07
2018-06-09T03:11:36.170Z,40.93
2018-06-09T03:14:04.438Z,36.73
2018-06-09T03:16:32.735Z,37.40
2018-06-09T03:19:01.014Z,34.20
2018-06-09T03:21:29.322Z,38.27
2018-06-09T03:23:57.615Z,31.53
2018-06-09T03:26:25.946Z,31.83
2018-06-09T03:28:54.493Z,34.00
2018-06-09T03:31:22.798Z,36.03
2018-06-09T03:33:51.125Z,40.60
2018-06-09T03:36:19.458Z,41.33
2018-06-09T03:38:47.835Z,38.30
2018-06-09T03:41:16.163Z,33.53
2018-06-09T03:43:44.708Z,44.03
2018-06-09T03:46:13.071Z,32.10
2018-06-09T03:48:41.387Z,31.20
2018-06-09T03:51:09.691Z,37.13
2018-06-09T03:53:38.101Z,34.53
2018-06-09T03:56:06.382Z,29.23
2018-06-09T03:58:34.758Z,28.43
2018-06-09T04:01:03.078Z,42.07
2018-06-09T04:03:31.398Z,32.00
2018-06-09T04:05:59.695Z,31.73
2018-06-09T04:08:28.073Z,27.20
2018-06-09T04:10:56.387Z,44.97
2018-06-09T04:13:24.689Z,38.13
2018-06-09T04:15:53.002Z,31.40
2018-06-09T04:18:21.297Z,34.37
2018-06-09T04:20:49.639Z,31.60
2018-06-09T04:23:17.962Z,32.33
2018-06-09T04:25:46.315Z,29.20
2018-06-09T04:28:14.601Z,29.60
2018-06-09T04:30:42.973Z,37.07
2018-06-09T04:33:11.274Z,30.10
2018-06-09T04:35:39.550Z,39.70
2018-06-09T04:38:07.890Z,24.37
2018-06-09T04:40:36.166Z,37.43
2018-06-09T04:43:04.473Z,25.70
2018-06-09T04:45:32.752Z,27.50
2018-06-09T04:48:01.059Z,25.33
2018-06-09T04:50:29.374Z,29.23
2018-06-09T04:52:57.707Z,23.40
2018-06-09T04:55:26.332Z,25.93
2018-06-09T04:57:54.913Z,23.40
2018-06-09T05:00:23.230Z,27.40
2018-06-09T05:02:51.504Z,25.13
2018-06-09T05:05:19.782Z,24.03
2018-06-09T05:07:48.573Z,23.37
2018-06-09T05:10:16.868Z,22.43
2018-06-09T05:12:45.157Z,20.57
2018-06-09T05:15:13.437Z,19.57
2018-06-09T05:17:41.723Z,25.90
2018-06-09T05:20:10.039Z,25.40
2018-06-09T05:22:38.358Z,22.57
2018-06-09T05:25:06.642Z,24.40
2018-06-09T05:27:35.169Z,23.00
2018-06-09T05:30:03.479Z,21.30
2018-06-09T05:32:31.771Z,25.90
2018-06-09T05:35:00.056Z,18.50
2018-06-09T05:37:28.326Z,21.57
2018-06-09T05:39:56.671Z,19.30
2018-06-09T05:42:24.942Z,21.80
2018-06-09T05:44:53.205Z,21.70
2018-06-09T05:47:21.513Z,20.60
2018-06-09T05:49:49.801Z,24.90
2018-06-09T05:52:18.113Z,22.33
2018-06-09T05:54:46.397Z,20.20
2018-06-09T05:57:14.666Z,21.20
2018-06-09T05:59:42.984Z,19.80
2018-06-09T06:02:11.262Z,17.43
2018-06-09T06:04:39.534Z,20.10
2018-06-09T06:07:07.868Z,20.87
2018-06-09T06:09:36.146Z,16.90
2018-06-09T06:12:04.406Z,19.20
2018-06-09T06:14:32.674Z,17.73
2018-06-09T06:17:00.966Z,27.97
2018-06-09T06:19:29.250Z,25.87
2018-06-09T06:21:57.530Z,15.60
2018-06-09T06:24:25.808Z,17.43
2018-06-09T06:26:54.081Z,17.03
2018-06-09T06:29:22.355Z,18.57
2018-06-09T06:31:50.637Z,19.77
2018-06-09T06:34:18.902Z,24.00
2018-06-09T06:36:47.185Z,17.10
2018-06-09T06:39:15.450Z,17.30
2018-06-09T06:41:43.746Z,22.83
2018-06-09T06:44:12.002Z,18.10
2018-06-09T06:46:40.276Z,18.23
2018-06-09T06:49:08.554Z,22.67
2018-06-09T06:51:36.854Z,16.10
2018-06-09T06:54:05.126Z,25.43
2018-06-09T06:56:33.415Z,24.53
2018-06-09T06:59:01.694Z,23.17
2018-06-09T07:01:29.969Z,18.07
2018-06-09T07:03:58.229Z,15.40
2018-06-09T07:06:26.511Z,17.97
2018-06-09T07:08:54.786Z,14.53
2018-06-09T07:11:23.062Z,19.50
2018-06-09T07:13:51.352Z,21.47
2018-06-09T07:16:19.655Z,19.23
2018-06-09T07:18:47.914Z,18.33
2018-06-09T07:21:16.201Z,20.07
2018-06-09T07:23:44.483Z,19.60
2018-06-09T07:26:12.743Z,25.27
2018-06-09T07:28:41.053Z,20.10
2018-06-09T07:31:09.358Z,18.73
2018-06-09T07:33:37.839Z,19.13
2018-06-09T07:36:06.126Z,31.57
2018-06-09T07:38:34.417Z,23.97
2018-06-09T07:41:02.699Z,35.27
2018-06-09T07:43:30.975Z,28.10
2018-06-09T07:45:59.271Z,19.87
2018-06-09T07:48:27.534Z,22.63
2018-06-09T07:50:55.815Z,22.50
2018-06-09T07:53:24.087Z,23.47
2018-06-09T07:55:52.361Z,37.57
2018-06-09T07:58:20.738Z,20.73
2018-06-09T08:00:49.022Z,31.90
2018-06-09T08:03:17.314Z,17.97
2018-06-09T08:05:45.667Z,23.00
2018-06-09T08:08:13.955Z,23.97
2018-06-09T08:10:42.316Z,16.60
2018-06-09T08:13:10.633Z,17.03
2018-06-09T08:15:38.967Z,16.33
2018-06-09T08:18:07.260Z,21.43
2018-06-09T08:20:35.582Z,20.50
2018-06-09T08:23:03.952Z,17.90
2018-06-09T08:25:32.255Z,25.30
2018-06-09T08:28:00.536Z,23.70
2018-06-09T08:30:28.815Z,19.50
2018-06-09T08:32:57.102Z,18.47
2018-06-09T08:35:25.515Z,19.97
2018-06-09T08:37:54.738Z,15.80
2018-06-09T08:40:23.057Z,26.63
2018-06-09T08:42:51.395Z,18.80
2018-06-09T08:45:19.706Z,20.50
2018-06-09T08:47:48.426Z,23.87
2018-06-09T08:50:16.690Z,20.20
2018-06-09T08:52:45.020Z,21.13
2018-06-09T08:55:13.358Z,30.63
2018-06-09T08:57:41.666Z,18.87
2018-06-09T09:00:09.958Z,22.73
2018-06-09T09:02:38.275Z,16.70
2018-06-09T09:05:06.594Z,20.73
2018-06-09T09:07:34.891Z,16.13
2018-06-09T09:10:03.261Z,20.20
2018-06-09T09:12:31.525Z,18.20
2018-06-09T09:14:59.857Z,19.70
2018-06-09T09:17:28.179Z,32.83
2018-06-09T09:19:56.474Z,26.47
2018-06-09T09:22:24.778Z,20.97
2018-06-09T09:24:53.126Z,19.67
2018-06-09T09:27:21.424Z,19.90
2018-06-09T09:29:49.771Z,19.40
2018-06-09T09:32:18.076Z,21.57
2018-06-09T09:34:46.846Z,23.10
2018-06-09T09:37:15.142Z,26.53
2018-06-09T09:39:43.149Z,20.27
2018-06-09T09:42:11.432Z,22.20
2018-06-09T09:44:39.795Z,29.10
2018-06-09T09:47:08.106Z,20.80
2018-06-09T09:49:36.397Z,26.83
2018-06-09T09:52:04.692Z,17.87
2018-06-09T09:54:32.991Z,23.47
2018-06-09T09:57:01.265Z,22.50
2018-06-09T09:59:29.561Z,26.10
2018-06-09T10:01:57.838Z,19.00
2018-06-09T10:04:26.313Z,23.27
2018-06-09T10:06:54.606Z,18.80
2018-06-09T10:09:22.902Z,23.17
2018-06-09T10:11:51.374Z,22.73
2018-06-09T10:14:19.690Z,20.97
2018-06-09T10:16:48.338Z,16.40
2018-06-09T10:19:16.755Z,23.80
2018-06-09T10:21:45.127Z,16.30
2018-06-09T10:24:13.536Z,22.90
2018-06-09T10:26:41.925Z,20.83
2018-06-09T10:29:10.226Z,27.57
2018-06-09T10:31:38.529Z,22.60
2018-06-09T10:34:06.790Z,20.30
2018-06-09T10:36:35.202Z,18.30
2018-06-09T10:39:04.580Z,16.00
2018-06-09T10:41:32.874Z,21.67
2018-06-09T10:44:01.224Z,22.20
2018-06-09T10:46:29.502Z,17.67
2018-06-09T10:48:57.770Z,22.43
2018-06-09T10:51:26.051Z,18.10
2018-06-09T10:53:54.368Z,20.73
2018-06-09T10:56:22.651Z,20.97
2018-06-09T10:58:50.980Z,15.03
2018-06-09T11:01:19.258Z,18.77
2018-06-09T11:03:47.533Z,21.87
2018-06-09T11:06:15.826Z,17.93
2018-06-09T11:08:44.137Z,22.47
2018-06-09T11:11:12.404Z,21.03
2018-06-09T11:13:40.690Z,19.60
2018-06-09T11:16:08.966Z,18.97
2018-06-09T11:18:37.258Z,35.03
2018-06-09T11:21:05.534Z,22.20
2018-06-09T11:23:33.827Z,16.40
2018-06-09T11:26:02.122Z,29.13
2018-06-09T11:28:30.514Z,16.20
2018-06-09T11:30:58.818Z,18.63
2018-06-09T11:33:27.130Z,12.83
2018-06-09T11:35:55.159Z,15.97
2018-06-09T11:38:23.457Z,17.60
2018-06-09T11:40:51.739Z,16.07
2018-06-09T11:43:20.248Z,18.73
2018-06-09T11:45:48.533Z,16.03
2018-06-09T11:48:16.807Z,14.70
2018-06-09T11:50:45.112Z,14.90
2018-06-09T11:53:13.391Z,12.63
2018-06-09T11:55:41.667Z,15.13
2018-06-09T11:58:09.950Z,17.40
2018-06-09T12:00:38.258Z,24.07
2018-06-09T12:03:06.567Z,20.43
2018-06-09T12:05:34.874Z,21.77
2018-06-09T12:08:03.223Z,12.70
2018-06-09T12:10:31.575Z,15.23
2018-06-09T12:12:59.984Z,13.57
2018-06-09T12:15:28.004Z,17.40
2018-06-09T12:17:56.471Z,12.87
2018-06-09T12:20:24.781Z,21.23
2018-06-09T12:22:53.153Z,18.27
2018-06-09T12:25:21.497Z,21.80
2018-06-09T12:27:49.804Z,14.30
2018-06-09T12:30:18.146Z,13.30
2018-06-09T12:32:46.425Z,13.77
2018-06-09T12:35:14.744Z,22.07
2018-06-09T12:37:43.051Z,19.30
2018-06-09T12:40:11.391Z,20.60
2018-06-09T12:42:39.714Z,17.23
2018-06-09T12:45:08.048Z,17.60
2018-06-09T12:47:36.341Z,17.87
2018-06-09T12:50:04.662Z,18.67
2018-06-09T12:52:33.032Z,24.10
2018-06-09T12:55:01.327Z,16.07
2018-06-09T12:57:29.621Z,14.70
2018-06-09T12:59:57.929Z,19.43
2018-06-09T13:02:26.225Z,19.83
2018-06-09T13:04:54.563Z,13.37
2018-06-09T13:07:23.067Z,17.63
2018-06-09T13:09:51.386Z,14.50
2018-06-09T13:12:19.702Z,12.63
2018-06-09T13:14:47.975Z,15.00
2018-06-09T13:17:16.293Z,16.00
2018-06-09T13:19:44.659Z,29.83
2018-06-09T13:22:12.965Z,16.17
2018-06-09T13:24:41.266Z,35.10
2018-06-09T13:27:09.542Z,17.17
2018-06-09T13:29:37.586Z,14.30
2018-06-09T13:32:05.871Z,16.33
2018-06-09T13:34:34.154Z,14.90
2018-06-09T13:37:02.468Z,12.83
2018-06-09T13:39:30.806Z,13.20
2018-06-09T13:41:59.087Z,14.27
2018-06-09T13:44:27.349Z,23.83
2018-06-09T13:46:55.640Z,14.40
2018-06-09T13:49:23.926Z,15.87
2018-06-09T13:51:52.190Z,14.30
2018-06-09T13:54:20.524Z,12.47
2018-06-09T13:56:48.737Z,12.87
2018-06-09T13:59:17.015Z,17.77
2018-06-09T14:01:45.286Z,10.90
2018-06-09T14:04:13.553Z,33.80
2018-06-09T14:06:41.845Z,12.00
2018-06-09T14:09:10.143Z,20.90
2018-06-09T14:11:38.144Z,13.77
2018-06-09T14:14:06.401Z,11.73
2018-06-09T14:16:34.696Z,11.40
2018-06-09T14:19:02.971Z,14.53
2018-06-09T14:21:31.241Z,14.63
2018-06-09T14:23:59.542Z,11.30
2018-06-09T14:26:27.858Z,13.70
2018-06-09T14:28:56.156Z,19.60
2018-06-09T14:31:24.454Z,13.20
2018-06-09T14:33:52.749Z,11.73
2018-06-09T14:36:21.242Z,11.33
2018-06-09T14:38:49.523Z,16.20
2018-06-09T14:41:17.789Z,10.50
2018-06-09T14:43:46.074Z,31.73
2018-06-09T14:46:14.354Z,12.87
2018-06-09T14:48:42.818Z,12.60
2018-06-09T14:51:11.102Z,13.00
2018-06-09T14:53:39.382Z,14.67
2018-06-09T14:56:07.663Z,17.90
2018-06-09T14:58:35.942Z,15.10
2018-06-09T15:01:04.206Z,21.20
2018-06-09T15:03:32.533Z,14.90
2018-06-09T15:06:00.807Z,17.20
2018-06-09T15:08:29.082Z,22.07
2018-06-09T15:10:57.516Z,20.70
2018-06-09T15:13:25.999Z,17.83
2018-06-09T15:15:54.266Z,17.83
2018-06-09T15:18:22.553Z,24.70
2018-06-09T15:20:50.820Z,19.47
2018-06-09T15:23:19.131Z,20.20
2018-06-09T15:25:47.585Z,29.80
2018-06-09T15:28:15.872Z,16.50
2018-06-09T15:30:44.134Z,22.90
2018-06-09T15:33:12.450Z,19.90
2018-06-09T15:35:40.705Z,24.43
2018-06-09T15:38:08.978Z,19.13
2018-06-09T15:40:37.247Z,23.57
2018-06-09T15:43:05.510Z,18.47
2018-06-09T15:45:33.514Z,21.40
2018-06-09T15:48:01.786Z,21.80
2018-06-09T15:50:30.061Z,17.57
2018-06-09T15:52:58.332Z,15.23
2018-06-09T15:55:26.815Z,22.30
2018-06-09T15:57:55.102Z,32.70
2018-06-09T16:00:23.379Z,22.83
2018-06-09T16:02:51.681Z,23.63
2018-06-09T16:05:19.961Z,18.83
2018-06-09T16:07:48.355Z,18.37
2018-06-09T16:10:16.634Z,33.43
2018-06-09T16:12:44.905Z,37.50
2018-06-09T16:15:13.190Z,22.53
2018-06-09T16:17:41.467Z,28.93
2018-06-09T16:20:09.748Z,21.57
2018-06-09T16:22:38.042Z,18.20
2018-06-09T16:25:06.315Z,25.40
2018-06-09T16:27:34.594Z,22.47
2018-06-09T16:30:02.874Z,19.83
2018-06-09T16:32:31.137Z,20.83
2018-06-09T16:34:59.470Z,19.20
2018-06-09T16:37:27.702Z,26.30
2018-06-09T16:39:55.969Z,21.27
2018-06-09T16:42:24.238Z,26.97
2018-06-09T16:44:52.564Z,19.23
2018-06-09T16:47:21.011Z,27.77
2018-06-09T16:49:49.324Z,26.80
2018-06-09T16:52:17.606Z,40.13
2018-06-09T16:54:45.883Z,64.40
2018-06-09T16:57:14.157Z,47.30
2018-06-09T16:59:42.437Z,30.90
2018-06-09T17:02:10.721Z,24.53
2018-06-09T17:04:38.999Z,19.47
2018-06-09T17:07:07.259Z,37.83
2018-06-09T17:09:35.747Z,23.90
2018-06-09T17:12:04.006Z,26.77
2018-06-09T17:14:32.311Z,24.00
2018-06-09T17:17:00.658Z,29.50
2018-06-09T17:19:28.918Z,29.73
2018-06-09T17:21:57.198Z,29.63
2018-06-09T17:24:25.481Z,26.93
2018-06-09T17:26:53.746Z,27.50
2018-06-09T17:29:22.014Z,43.10
2018-06-09T17:31:50.283Z,22.63
2018-06-09T17:34:18.566Z,26.50
2018-06-09T17:36:47.113Z,28.03
2018-06-09T17:39:15.583Z,25.37
2018-06-09T17:41:43.845Z,24.83
2018-06-09T17:44:12.119Z,34.13
2018-06-09T17:46:40.390Z,27.23
2018-06-09T17:49:08.646Z,51.50
2018-06-09T17:51:36.916Z,29.83
2018-06-09T17:54:05.198Z,24.30
2018-06-09T17:56:33.467Z,25.73
2018-06-09T17:59:01.742Z,22.60
2018-06-09T18:01:30.011Z,22.83
2018-06-09T18:03:58.282Z,20.23
2018-06-09T18:06:26.562Z,28.03
2018-06-09T18:08:54.835Z,23.20
2018-06-09T18:11:23.098Z,20.77
2018-06-09T18:13:51.378Z,55.90
2018-06-09T18:16:19.658Z,26.97
2018-06-09T18:18:47.939Z,27.60
2018-06-09T18:21:16.232Z,27.77
2018-06-09T18:23:44.515Z,26.20
2018-06-09T18:26:12.785Z,20.33
2018-06-09T18:28:41.246Z,27.70
2018-06-09T18:31:09.514Z,23.47
2018-06-09T18:33:37.824Z,21.93
2018-06-09T18:36:06.063Z,24.37
2018-06-09T18:38:34.347Z,30.20
2018-06-09T18:41:02.729Z,26.27
2018-06-09T18:43:31.003Z,27.70
2018-06-09T18:45:59.310Z,24.97
2018-06-09T18:48:27.573Z,28.60
2018-06-09T18:50:55.845Z,27.33
2018-06-09T18:53:24.114Z,24.67
2018-06-09T18:55:52.407Z,25.43
2018-06-09T18:58:20.678Z,24.70
2018-06-09T19:00:48.945Z,26.53
2018-06-09T19:03:17.226Z,25.93
2018-06-09T19:05:45.496Z,32.80
2018-06-09T19:08:13.778Z,28.13
2018-06-09T19:10:42.077Z,27.87
2018-06-09T19:13:10.355Z,23.57
2018-06-09T19:15:38.638Z,22.93
2018-06-09T19:18:06.935Z,29.80
2018-06-09T19:20:35.202Z,36.37
2018-06-09T19:23:03.562Z,21.50
2018-06-09T19:25:31.850Z,22.60
2018-06-09T19:28:00.225Z,22.80
2018-06-09T19:30:28.490Z,21.20
2018-06-09T19:32:56.765Z,19.90
2018-06-09T19:35:25.066Z,20.60
2018-06-09T19:37:53.618Z,20.30
2018-06-09T19:40:21.906Z,20.50
2018-06-09T19:42:50.171Z,23.67
2018-06-09T19:45:18.462Z,32.00
2018-06-09T19:47:46.961Z,26.53
2018-06-09T19:50:15.238Z,23.63
2018-06-09T19:52:43.627Z,25.33
2018-06-09T19:55:11.910Z,21.30
2018-06-09T19:57:40.186Z,31.53
2018-06-09T20:00:08.570Z,22.17
2018-06-09T20:02:36.854Z,24.97
2018-06-09T20:05:05.282Z,24.60
2018-06-09T20:07:33.552Z,24.10
2018-06-09T20:10:01.814Z,26.43
2018-06-09T20:12:30.082Z,21.30
2018-06-09T20:14:58.366Z,26.13
2018-06-09T20:17:26.361Z,20.00
2018-06-09T20:19:54.631Z,25.43
2018-06-09T20:22:22.915Z,24.93
2018-06-09T20:24:51.192Z,20.33
2018-06-09T20:27:19.475Z,24.53
2018-06-09T20:29:47.766Z,24.07
2018-06-09T20:32:16.034Z,17.83
2018-06-09T20:34:44.334Z,20.47
2018-06-09T20:37:12.610Z,21.30
2018-06-09T20:39:40.882Z,21.43
2018-06-09T20:42:09.342Z,24.37
2018-06-09T20:44:37.614Z,17.87
2018-06-09T20:47:05.888Z,19.20
2018-06-09T20:49:34.189Z,29.53
2018-06-09T20:52:02.462Z,19.67
2018-06-09T20:54:30.758Z,24.33
2018-06-09T20:56:59.037Z,21.00
2018-06-09T20:59:27.333Z,26.73
2018-06-09T21:01:55.602Z,18.03
2018-06-09T21:04:23.890Z,22.23
2018-06-09T21:06:52.184Z,21.27
2018-06-09T21:09:20.511Z,18.47
2018-06-09T21:11:48.790Z,23.47
2018-06-09T21:14:17.098Z,23.60
2018-06-09T21:16:45.410Z,16.03
2018-06-09T21:19:14.110Z,40.70
2018-06-09T21:21:42.381Z,38.50
2018-06-09T21:24:10.658Z,17.50
2018-06-09T21:28:49.569Z,19.00
2018-06-09T21:31:18.253Z,26.37
2018-06-09T21:34:03.159Z,23.00
2018-06-09T21:36:36.834Z,24.17
2018-06-09T21:39:17.743Z,20.23
2018-06-09T21:41:52.130Z,19.97
2018-06-09T21:44:25.718Z,17.23
2018-06-09T21:46:53.999Z,22.10
2018-06-09T21:49:22.269Z,25.20
2018-06-09T21:51:50.545Z,21.23
2018-06-09T21:54:18.829Z,19.17
2018-06-09T21:56:47.122Z,27.83
2018-06-09T21:59:15.130Z,32.90
2018-06-09T22:01:43.462Z,23.37
2018-06-09T22:04:11.752Z,25.33
2018-06-09T22:06:40.016Z,18.87
2018-06-09T22:09:08.296Z,25.73
2018-06-09T22:11:36.573Z,14.93
2018-06-09T22:14:04.902Z,32.43
2018-06-09T22:16:33.169Z,19.33
2018-06-09T22:19:01.446Z,23.30
2018-06-09T22:21:29.728Z,19.57
2018-06-09T22:23:58.049Z,22.47
2018-06-09T22:26:26.358Z,20.07
2018-06-09T22:28:54.635Z,17.83
2018-06-09T22:31:22.938Z,26.03
2018-06-09T22:33:51.226Z,22.97
2018-06-09T22:36:19.510Z,24.93
2018-06-09T22:38:47.835Z,23.07
2018-06-09T22:41:16.114Z,17.53
2018-06-09T22:43:44.390Z,18.13
2018-06-09T22:46:12.663Z,24.20
2018-06-09T22:48:40.972Z,23.00
2018-06-09T22:51:09.467Z,27.77
2018-06-09T22:53:37.734Z,30.83
2018-06-09T22:56:06.017Z,20.47
2018-06-09T22:58:34.308Z,25.30
2018-06-09T23:01:02.582Z,19.77
2018-06-09T23:03:30.863Z,24.10
2018-06-09T23:05:59.134Z,20.60
2018-06-09T23:08:27.404Z,27.03
2018-06-09T23:10:55.671Z,18.73
2018-06-09T23:13:23.951Z,20.87
2018-06-09T23:15:52.245Z,20.13
2018-06-09T23:18:20.713Z,27.20
2018-06-09T23:20:48.991Z,23.70
2018-06-09T23:23:17.262Z,22.50
2018-06-09T23:25:45.557Z,19.13
2018-06-09T23:28:13.844Z,22.47
2018-06-09T23:30:42.136Z,23.00
2018-06-09T23:33:10.446Z,27.27
2018-06-09T23:35:38.744Z,19.10
2018-06-09T23:38:07.335Z,20.17
2018-06-09T23:40:35.614Z,17.60
2018-06-09T23:43:03.889Z,35.57
2018-06-09T23:45:32.182Z,19.57
2018-06-09T23:48:00.464Z,17.43
2018-06-09T23:50:28.926Z,16.00
2018-06-09T23:52:57.452Z,21.70
2018-06-09T23:55:25.723Z,17.73
2018-06-09T23:57:54.522Z,20.10
